sensor_id;sensor_type;location;lat;lon;timestamp;temperature;humidity
15359;DHT22;7779;49.596;11.070;2022-08-19T00:02:08;22.00;69.70
15359;DHT22;7779;49.596;11.070;2022-08-19T00:04:35;22.00;69.80
15359;DHT22;7779;49.596;11.070;2022-08-19T00:07:05;22.00;69.90
15359;DHT22;7779;49.596;11.070;2022-08-19T00:09:32;22.00;70.10
15359;DHT22;7779;49.596;11.070;2022-08-19T00:11:58;22.00;70.20
15359;DHT22;7779;49.596;11.070;2022-08-19T00:14:27;22.00;70.40
15359;DHT22;7779;49.596;11.070;2022-08-19T00:16:57;22.00;70.50
15359;DHT22;7779;49.596;11.070;2022-08-19T00:19:23;22.00;70.60
15359;DHT22;7779;49.596;11.070;2022-08-19T00:21:50;21.90;70.60
15359;DHT22;7779;49.596;11.070;2022-08-19T00:24:16;21.90;70.70
15359;DHT22;7779;49.596;11.070;2022-08-19T00:26:43;21.90;70.90
15359;DHT22;7779;49.596;11.070;2022-08-19T00:29:13;21.90;71.00
15359;DHT22;7779;49.596;11.070;2022-08-19T00:31:41;21.90;71.10
15359;DHT22;7779;49.596;11.070;2022-08-19T00:34:09;21.90;71.30
15359;DHT22;7779;49.596;11.070;2022-08-19T00:36:35;21.90;71.40
15359;DHT22;7779;49.596;11.070;2022-08-19T00:39:01;21.80;71.40
15359;DHT22;7779;49.596;11.070;2022-08-19T00:41:27;21.80;71.50
15359;DHT22;7779;49.596;11.070;2022-08-19T00:46:31;21.80;73.20
15359;DHT22;7779;49.596;11.070;2022-08-19T00:49:00;21.80;71.60
15359;DHT22;7779;49.596;11.070;2022-08-19T00:51:32;21.80;71.80
15359;DHT22;7779;49.596;11.070;2022-08-19T00:53:58;21.80;71.90
15359;DHT22;7779;49.596;11.070;2022-08-19T00:56:26;21.80;72.20
15359;DHT22;7779;49.596;11.070;2022-08-19T00:58:55;21.80;72.40
15359;DHT22;7779;49.596;11.070;2022-08-19T01:01:23;21.80;72.80
15359;DHT22;7779;49.596;11.070;2022-08-19T01:03:50;21.80;72.60
15359;DHT22;7779;49.596;11.070;2022-08-19T01:06:16;21.80;72.80
15359;DHT22;7779;49.596;11.070;2022-08-19T01:08:42;21.80;72.90
15359;DHT22;7779;49.596;11.070;2022-08-19T01:11:08;21.80;73.00
15359;DHT22;7779;49.596;11.070;2022-08-19T01:13:36;21.80;73.80
15359;DHT22;7779;49.596;11.070;2022-08-19T01:16:07;21.80;73.20
15359;DHT22;7779;49.596;11.070;2022-08-19T01:18:40;21.80;73.80
15359;DHT22;7779;49.596;11.070;2022-08-19T01:21:27;21.80;74.30
15359;DHT22;7779;49.596;11.070;2022-08-19T01:23:58;21.80;74.80
15359;DHT22;7779;49.596;11.070;2022-08-19T01:26:25;21.80;73.30
15359;DHT22;7779;49.596;11.070;2022-08-19T01:28:55;21.80;73.50
15359;DHT22;7779;49.596;11.070;2022-08-19T01:31:24;21.80;74.00
15359;DHT22;7779;49.596;11.070;2022-08-19T01:33:53;21.80;74.00
15359;DHT22;7779;49.596;11.070;2022-08-19T01:36:25;21.90;74.00
15359;DHT22;7779;49.596;11.070;2022-08-19T01:38:55;21.90;74.70
15359;DHT22;7779;49.596;11.070;2022-08-19T01:41:22;21.90;74.20
15359;DHT22;7779;49.596;11.070;2022-08-19T01:43:49;21.90;74.20
15359;DHT22;7779;49.596;11.070;2022-08-19T01:46:17;21.90;74.10
15359;DHT22;7779;49.596;11.070;2022-08-19T01:48:44;21.90;74.20
15359;DHT22;7779;49.596;11.070;2022-08-19T01:51:11;21.90;74.40
15359;DHT22;7779;49.596;11.070;2022-08-19T01:53:39;21.90;74.40
15359;DHT22;7779;49.596;11.070;2022-08-19T01:56:06;21.90;74.50
15359;DHT22;7779;49.596;11.070;2022-08-19T01:58:47;21.90;74.50
15359;DHT22;7779;49.596;11.070;2022-08-19T02:01:20;21.90;76.60
15359;DHT22;7779;49.596;11.070;2022-08-19T02:03:45;21.90;74.60
15359;DHT22;7779;49.596;11.070;2022-08-19T02:06:12;21.90;74.70
15359;DHT22;7779;49.596;11.070;2022-08-19T02:08:40;21.90;74.70
15359;DHT22;7779;49.596;11.070;2022-08-19T02:11:06;21.90;74.80
15359;DHT22;7779;49.596;11.070;2022-08-19T02:13:34;21.90;74.80
15359;DHT22;7779;49.596;11.070;2022-08-19T02:16:00;21.90;74.80
15359;DHT22;7779;49.596;11.070;2022-08-19T02:18:25;21.90;74.70
15359;DHT22;7779;49.596;11.070;2022-08-19T02:20:52;21.90;74.70
15359;DHT22;7779;49.596;11.070;2022-08-19T02:23:17;21.90;74.70
15359;DHT22;7779;49.596;11.070;2022-08-19T02:25:47;21.90;74.70
15359;DHT22;7779;49.596;11.070;2022-08-19T02:28:14;21.90;75.20
15359;DHT22;7779;49.596;11.070;2022-08-19T02:30:41;21.90;74.60
15359;DHT22;7779;49.596;11.070;2022-08-19T02:33:08;21.90;74.60
15359;DHT22;7779;49.596;11.070;2022-08-19T02:35:34;21.90;74.50
15359;DHT22;7779;49.596;11.070;2022-08-19T02:37:59;21.90;74.50
15359;DHT22;7779;49.596;11.070;2022-08-19T02:40:52;21.90;74.60
15359;DHT22;7779;49.596;11.070;2022-08-19T02:43:24;21.90;75.60
15359;DHT22;7779;49.596;11.070;2022-08-19T02:45:51;21.90;74.70
15359;DHT22;7779;49.596;11.070;2022-08-19T02:48:19;21.90;74.70
15359;DHT22;7779;49.596;11.070;2022-08-19T02:50:47;21.90;74.80
15359;DHT22;7779;49.596;11.070;2022-08-19T02:53:24;21.80;74.80
15359;DHT22;7779;49.596;11.070;2022-08-19T02:55:53;21.90;75.50
15359;DHT22;7779;49.596;11.070;2022-08-19T02:58:20;21.80;74.90
15359;DHT22;7779;49.596;11.070;2022-08-19T03:00:49;21.90;75.20
15359;DHT22;7779;49.596;11.070;2022-08-19T03:03:18;21.90;75.30
15359;DHT22;7779;49.596;11.070;2022-08-19T03:05:45;21.90;75.20
15359;DHT22;7779;49.596;11.070;2022-08-19T03:08:12;21.90;75.20
15359;DHT22;7779;49.596;11.070;2022-08-19T03:10:44;21.90;75.40
15359;DHT22;7779;49.596;11.070;2022-08-19T03:13:16;21.90;75.50
15359;DHT22;7779;49.596;11.070;2022-08-19T03:15:45;21.90;76.00
15359;DHT22;7779;49.596;11.070;2022-08-19T03:18:14;21.90;75.50
15359;DHT22;7779;49.596;11.070;2022-08-19T03:20:45;21.90;75.40
15359;DHT22;7779;49.596;11.070;2022-08-19T03:23:15;21.90;75.40
15359;DHT22;7779;49.596;11.070;2022-08-19T03:25:48;21.90;75.40
15359;DHT22;7779;49.596;11.070;2022-08-19T03:28:15;21.90;76.30
15359;DHT22;7779;49.596;11.070;2022-08-19T03:30:53;21.90;75.40
15359;DHT22;7779;49.596;11.070;2022-08-19T03:33:22;21.90;75.50
15359;DHT22;7779;49.596;11.070;2022-08-19T03:36:10;21.90;75.40
15359;DHT22;7779;49.596;11.070;2022-08-19T03:38:45;21.90;76.90
15359;DHT22;7779;49.596;11.070;2022-08-19T03:41:15;21.90;75.60
15359;DHT22;7779;49.596;11.070;2022-08-19T03:43:46;21.90;75.60
15359;DHT22;7779;49.596;11.070;2022-08-19T03:46:16;21.90;75.50
15359;DHT22;7779;49.596;11.070;2022-08-19T03:48:48;21.90;75.70
15359;DHT22;7779;49.596;11.070;2022-08-19T03:51:26;21.90;75.60
15359;DHT22;7779;49.596;11.070;2022-08-19T03:53:54;21.90;76.40
15359;DHT22;7779;49.596;11.070;2022-08-19T03:56:21;21.90;75.60
15359;DHT22;7779;49.596;11.070;2022-08-19T03:58:47;21.80;75.60
15359;DHT22;7779;49.596;11.070;2022-08-19T04:01:17;21.80;75.70
15359;DHT22;7779;49.596;11.070;2022-08-19T04:03:45;21.80;76.10
15359;DHT22;7779;49.596;11.070;2022-08-19T04:06:16;21.80;75.80
15359;DHT22;7779;49.596;11.070;2022-08-19T04:08:45;21.80;75.80
15359;DHT22;7779;49.596;11.070;2022-08-19T04:11:13;21.80;75.80
15359;DHT22;7779;49.596;11.070;2022-08-19T04:13:41;21.80;75.80
15359;DHT22;7779;49.596;11.070;2022-08-19T04:16:10;21.80;75.70
15359;DHT22;7779;49.596;11.070;2022-08-19T04:18:38;21.80;75.80
15359;DHT22;7779;49.596;11.070;2022-08-19T04:21:05;21.80;75.90
15359;DHT22;7779;49.596;11.070;2022-08-19T04:23:34;21.80;76.00
15359;DHT22;7779;49.596;11.070;2022-08-19T04:26:03;21.80;76.10
15359;DHT22;7779;49.596;11.070;2022-08-19T04:28:29;21.80;76.10
15359;DHT22;7779;49.596;11.070;2022-08-19T04:30:55;21.80;76.20
15359;DHT22;7779;49.596;11.070;2022-08-19T04:33:24;21.80;76.20
15359;DHT22;7779;49.596;11.070;2022-08-19T04:35:52;21.80;76.50
15359;DHT22;7779;49.596;11.070;2022-08-19T04:38:19;21.80;76.20
15359;DHT22;7779;49.596;11.070;2022-08-19T04:40:49;21.80;76.30
15359;DHT22;7779;49.596;11.070;2022-08-19T04:43:36;21.80;76.20
15359;DHT22;7779;49.596;11.070;2022-08-19T04:46:09;21.80;76.10
15359;DHT22;7779;49.596;11.070;2022-08-19T04:48:37;21.80;76.80
15359;DHT22;7779;49.596;11.070;2022-08-19T04:51:09;21.80;76.30
15359;DHT22;7779;49.596;11.070;2022-08-19T04:53:38;21.90;76.70
15359;DHT22;7779;49.596;11.070;2022-08-19T04:56:09;21.90;76.30
15359;DHT22;7779;49.596;11.070;2022-08-19T04:58:39;21.90;76.50
15359;DHT22;7779;49.596;11.070;2022-08-19T05:01:15;21.90;76.30
15359;DHT22;7779;49.596;11.070;2022-08-19T05:03:47;21.90;77.00
15359;DHT22;7779;49.596;11.070;2022-08-19T05:06:17;21.90;76.50
15359;DHT22;7779;49.596;11.070;2022-08-19T05:08:45;21.90;76.60
15359;DHT22;7779;49.596;11.070;2022-08-19T05:11:18;21.90;76.40
15359;DHT22;7779;49.596;11.070;2022-08-19T05:13:47;21.90;76.60
15359;DHT22;7779;49.596;11.070;2022-08-19T05:16:16;21.90;76.50
15359;DHT22;7779;49.596;11.070;2022-08-19T05:18:44;21.90;76.50
15359;DHT22;7779;49.596;11.070;2022-08-19T05:21:29;22.00;76.40
15359;DHT22;7779;49.596;11.070;2022-08-19T05:24:15;22.00;76.30
15359;DHT22;7779;49.596;11.070;2022-08-19T05:26:44;22.00;76.20
15359;DHT22;7779;49.596;11.070;2022-08-19T05:29:13;22.00;76.30
15359;DHT22;7779;49.596;11.070;2022-08-19T05:31:41;22.00;76.20
15359;DHT22;7779;49.596;11.070;2022-08-19T05:34:07;22.00;76.30
15359;DHT22;7779;49.596;11.070;2022-08-19T05:36:40;22.00;76.40
15359;DHT22;7779;49.596;11.070;2022-08-19T05:39:14;22.00;77.10
15359;DHT22;7779;49.596;11.070;2022-08-19T05:41:43;22.00;76.60
15359;DHT22;7779;49.596;11.070;2022-08-19T05:44:11;22.00;76.50
15359;DHT22;7779;49.596;11.070;2022-08-19T05:46:38;22.10;76.60
15359;DHT22;7779;49.596;11.070;2022-08-19T05:49:05;22.10;76.70
15359;DHT22;7779;49.596;11.070;2022-08-19T05:51:34;22.10;76.70
15359;DHT22;7779;49.596;11.070;2022-08-19T05:54:05;22.10;76.70
15359;DHT22;7779;49.596;11.070;2022-08-19T05:56:34;22.10;76.70
15359;DHT22;7779;49.596;11.070;2022-08-19T05:59:05;22.20;76.80
15359;DHT22;7779;49.596;11.070;2022-08-19T06:01:34;22.20;76.70
15359;DHT22;7779;49.596;11.070;2022-08-19T06:04:03;22.20;76.60
15359;DHT22;7779;49.596;11.070;2022-08-19T06:06:29;22.30;76.90
15359;DHT22;7779;49.596;11.070;2022-08-19T06:08:55;22.30;77.10
15359;DHT22;7779;49.596;11.070;2022-08-19T06:13:53;22.40;77.60
15359;DHT22;7779;49.596;11.070;2022-08-19T06:16:20;22.50;77.90
15359;DHT22;7779;49.596;11.070;2022-08-19T06:18:56;22.60;77.90
15359;DHT22;7779;49.596;11.070;2022-08-19T06:21:27;22.70;77.90
15359;DHT22;7779;49.596;11.070;2022-08-19T06:23:55;22.90;77.60
15359;DHT22;7779;49.596;11.070;2022-08-19T06:26:22;22.90;77.40
15359;DHT22;7779;49.596;11.070;2022-08-19T06:28:49;23.00;76.90
15359;DHT22;7779;49.596;11.070;2022-08-19T06:31:25;23.10;76.40
15359;DHT22;7779;49.596;11.070;2022-08-19T06:33:53;23.20;75.90
15359;DHT22;7779;49.596;11.070;2022-08-19T06:39:11;23.20;75.00
15359;DHT22;7779;49.596;11.070;2022-08-19T06:41:52;23.20;74.90
15359;DHT22;7779;49.596;11.070;2022-08-19T06:44:21;23.20;74.50
15359;DHT22;7779;49.596;11.070;2022-08-19T06:46:49;23.20;74.40
15359;DHT22;7779;49.596;11.070;2022-08-19T06:49:16;23.20;74.30
15359;DHT22;7779;49.596;11.070;2022-08-19T06:51:44;23.20;73.80
15359;DHT22;7779;49.596;11.070;2022-08-19T06:54:15;23.20;74.20
15359;DHT22;7779;49.596;11.070;2022-08-19T06:56:43;23.20;74.30
15359;DHT22;7779;49.596;11.070;2022-08-19T06:59:15;23.20;74.50
15359;DHT22;7779;49.596;11.070;2022-08-19T07:01:46;23.20;74.70
15359;DHT22;7779;49.596;11.070;2022-08-19T07:04:28;23.20;74.70
15359;DHT22;7779;49.596;11.070;2022-08-19T07:07:03;23.20;75.10
15359;DHT22;7779;49.596;11.070;2022-08-19T07:09:34;23.30;74.90
15359;DHT22;7779;49.596;11.070;2022-08-19T07:12:03;23.30;74.90
15359;DHT22;7779;49.596;11.070;2022-08-19T07:14:32;23.40;75.10
15359;DHT22;7779;49.596;11.070;2022-08-19T07:17:06;23.40;75.30
15359;DHT22;7779;49.596;11.070;2022-08-19T07:19:34;23.40;75.20
15359;DHT22;7779;49.596;11.070;2022-08-19T07:22:02;23.50;75.00
15359;DHT22;7779;49.596;11.070;2022-08-19T07:24:31;23.60;74.90
15359;DHT22;7779;49.596;11.070;2022-08-19T07:26:59;23.60;74.60
15359;DHT22;7779;49.596;11.070;2022-08-19T07:29:29;23.60;74.30
15359;DHT22;7779;49.596;11.070;2022-08-19T07:32:00;23.60;74.00
15359;DHT22;7779;49.596;11.070;2022-08-19T07:34:29;23.60;73.90
15359;DHT22;7779;49.596;11.070;2022-08-19T07:36:56;23.70;73.90
15359;DHT22;7779;49.596;11.070;2022-08-19T07:39:29;23.70;73.90
15359;DHT22;7779;49.596;11.070;2022-08-19T07:41:59;23.70;73.80
15359;DHT22;7779;49.596;11.070;2022-08-19T07:44:27;23.70;73.60
15359;DHT22;7779;49.596;11.070;2022-08-19T07:46:56;23.70;73.60
15359;DHT22;7779;49.596;11.070;2022-08-19T07:49:23;23.70;73.50
15359;DHT22;7779;49.596;11.070;2022-08-19T07:51:53;23.70;73.50
15359;DHT22;7779;49.596;11.070;2022-08-19T07:54:24;23.70;73.50
15359;DHT22;7779;49.596;11.070;2022-08-19T07:56:52;23.80;73.40
15359;DHT22;7779;49.596;11.070;2022-08-19T07:59:19;23.80;73.10
15359;DHT22;7779;49.596;11.070;2022-08-19T08:01:46;23.70;73.50
15359;DHT22;7779;49.596;11.070;2022-08-19T08:04:14;23.70;73.00
15359;DHT22;7779;49.596;11.070;2022-08-19T08:06:58;23.70;72.90
15359;DHT22;7779;49.596;11.070;2022-08-19T08:09:44;23.70;72.80
15359;DHT22;7779;49.596;11.070;2022-08-19T08:12:14;23.70;72.70
15359;DHT22;7779;49.596;11.070;2022-08-19T08:14:49;23.60;72.70
15359;DHT22;7779;49.596;11.070;2022-08-19T08:17:19;23.60;72.70
15359;DHT22;7779;49.596;11.070;2022-08-19T08:19:46;23.60;72.80
15359;DHT22;7779;49.596;11.070;2022-08-19T08:22:16;23.60;73.00
15359;DHT22;7779;49.596;11.070;2022-08-19T08:25:12;23.60;73.30
15359;DHT22;7779;49.596;11.070;2022-08-19T08:27:43;23.50;73.80
15359;DHT22;7779;49.596;11.070;2022-08-19T08:30:23;23.60;73.90
15359;DHT22;7779;49.596;11.070;2022-08-19T08:32:51;23.60;74.10
15359;DHT22;7779;49.596;11.070;2022-08-19T08:35:20;23.60;74.00
15359;DHT22;7779;49.596;11.070;2022-08-19T08:37:50;23.60;74.20
15359;DHT22;7779;49.596;11.070;2022-08-19T08:40:28;23.70;74.30
15359;DHT22;7779;49.596;11.070;2022-08-19T08:46:15;23.70;73.80
15359;DHT22;7779;49.596;11.070;2022-08-19T08:49:02;23.80;73.20
15359;DHT22;7779;49.596;11.070;2022-08-19T08:51:59;23.70;73.20
15359;DHT22;7779;49.596;11.070;2022-08-19T08:54:37;23.70;72.90
15359;DHT22;7779;49.596;11.070;2022-08-19T08:57:26;23.70;73.30
15359;DHT22;7779;49.596;11.070;2022-08-19T09:00:17;23.70;72.50
15359;DHT22;7779;49.596;11.070;2022-08-19T09:02:57;23.70;72.40
15359;DHT22;7779;49.596;11.070;2022-08-19T09:05:34;23.70;72.40
15359;DHT22;7779;49.596;11.070;2022-08-19T09:10:59;23.60;71.90
15359;DHT22;7779;49.596;11.070;2022-08-19T09:13:52;23.60;72.10
15359;DHT22;7779;49.596;11.070;2022-08-19T09:16:30;23.60;72.10
15359;DHT22;7779;49.596;11.070;2022-08-19T09:19:00;23.60;72.20
15359;DHT22;7779;49.596;11.070;2022-08-19T09:21:28;23.60;71.70
15359;DHT22;7779;49.596;11.070;2022-08-19T09:23:54;23.60;72.40
15359;DHT22;7779;49.596;11.070;2022-08-19T09:26:22;23.60;72.40
15359;DHT22;7779;49.596;11.070;2022-08-19T09:28:50;23.60;72.30
15359;DHT22;7779;49.596;11.070;2022-08-19T09:31:20;23.60;72.30
15359;DHT22;7779;49.596;11.070;2022-08-19T09:33:49;23.60;72.30
15359;DHT22;7779;49.596;11.070;2022-08-19T09:36:17;23.60;72.30
15359;DHT22;7779;49.596;11.070;2022-08-19T09:38:45;23.50;72.10
15359;DHT22;7779;49.596;11.070;2022-08-19T09:41:16;23.50;72.10
15359;DHT22;7779;49.596;11.070;2022-08-19T09:43:47;23.50;72.10
15359;DHT22;7779;49.596;11.070;2022-08-19T09:46:14;23.50;72.10
15359;DHT22;7779;49.596;11.070;2022-08-19T09:48:43;23.50;72.40
15359;DHT22;7779;49.596;11.070;2022-08-19T09:51:15;23.50;72.50
15359;DHT22;7779;49.596;11.070;2022-08-19T09:53:46;23.50;72.50
15359;DHT22;7779;49.596;11.070;2022-08-19T09:56:17;23.60;72.60
15359;DHT22;7779;49.596;11.070;2022-08-19T09:58:44;23.60;72.60
15359;DHT22;7779;49.596;11.070;2022-08-19T10:01:22;23.60;72.70
15359;DHT22;7779;49.596;11.070;2022-08-19T10:03:51;23.60;72.50
15359;DHT22;7779;49.596;11.070;2022-08-19T10:06:24;23.70;72.70
15359;DHT22;7779;49.596;11.070;2022-08-19T10:08:55;23.70;72.60
15359;DHT22;7779;49.596;11.070;2022-08-19T10:11:21;23.70;72.60
15359;DHT22;7779;49.596;11.070;2022-08-19T10:13:48;23.70;72.50
15359;DHT22;7779;49.596;11.070;2022-08-19T10:16:17;23.80;72.40
15359;DHT22;7779;49.596;11.070;2022-08-19T10:18:45;23.80;72.10
15359;DHT22;7779;49.596;11.070;2022-08-19T10:21:18;23.90;72.20
15359;DHT22;7779;49.596;11.070;2022-08-19T10:23:53;23.90;72.10
15359;DHT22;7779;49.596;11.070;2022-08-19T10:26:27;24.00;72.50
15359;DHT22;7779;49.596;11.070;2022-08-19T10:28:55;24.00;72.20
15359;DHT22;7779;49.596;11.070;2022-08-19T10:31:27;24.10;72.30
15359;DHT22;7779;49.596;11.070;2022-08-19T10:33:56;24.10;71.90
15359;DHT22;7779;49.596;11.070;2022-08-19T10:36:34;24.20;71.90
15359;DHT22;7779;49.596;11.070;2022-08-19T10:39:08;24.30;71.70
15359;DHT22;7779;49.596;11.070;2022-08-19T10:41:37;24.30;71.60
15359;DHT22;7779;49.596;11.070;2022-08-19T10:44:10;24.40;71.50
15359;DHT22;7779;49.596;11.070;2022-08-19T10:46:40;24.50;70.90
15359;DHT22;7779;49.596;11.070;2022-08-19T10:49:10;24.50;70.70
15359;DHT22;7779;49.596;11.070;2022-08-19T10:51:38;24.50;68.80
15359;DHT22;7779;49.596;11.070;2022-08-19T10:54:23;24.50;70.30
15359;DHT22;7779;49.596;11.070;2022-08-19T10:57:10;24.60;70.20
15359;DHT22;7779;49.596;11.070;2022-08-19T10:59:36;24.60;70.00
15359;DHT22;7779;49.596;11.070;2022-08-19T11:02:05;24.60;69.90
15359;DHT22;7779;49.596;11.070;2022-08-19T11:04:36;24.60;69.80
15359;DHT22;7779;49.596;11.070;2022-08-19T11:07:04;24.60;69.80
15359;DHT22;7779;49.596;11.070;2022-08-19T11:09:31;24.60;69.60
15359;DHT22;7779;49.596;11.070;2022-08-19T11:12:02;24.60;69.50
15359;DHT22;7779;49.596;11.070;2022-08-19T11:14:28;24.70;69.50
15359;DHT22;7779;49.596;11.070;2022-08-19T11:16:56;24.60;69.20
15359;DHT22;7779;49.596;11.070;2022-08-19T11:19:22;24.60;69.00
15359;DHT22;7779;49.596;11.070;2022-08-19T11:21:50;24.60;68.80
15359;DHT22;7779;49.596;11.070;2022-08-19T11:24:20;24.60;68.70
15359;DHT22;7779;49.596;11.070;2022-08-19T11:26:50;24.60;68.70
15359;DHT22;7779;49.596;11.070;2022-08-19T11:29:20;24.50;68.50
15359;DHT22;7779;49.596;11.070;2022-08-19T11:31:48;24.50;68.30
15359;DHT22;7779;49.596;11.070;2022-08-19T11:34:19;24.50;68.30
15359;DHT22;7779;49.596;11.070;2022-08-19T11:36:48;24.40;68.10
15359;DHT22;7779;49.596;11.070;2022-08-19T11:39:17;24.40;68.90
15359;DHT22;7779;49.596;11.070;2022-08-19T11:41:46;24.30;68.10
15359;DHT22;7779;49.596;11.070;2022-08-19T11:44:12;24.30;68.20
15359;DHT22;7779;49.596;11.070;2022-08-19T11:46:40;24.20;68.20
15359;DHT22;7779;49.596;11.070;2022-08-19T11:49:14;24.20;68.40
15359;DHT22;7779;49.596;11.070;2022-08-19T11:51:42;24.10;68.40
15359;DHT22;7779;49.596;11.070;2022-08-19T11:54:13;24.10;68.70
15359;DHT22;7779;49.596;11.070;2022-08-19T11:56:40;24.00;68.80
15359;DHT22;7779;49.596;11.070;2022-08-19T11:59:06;24.00;69.00
15359;DHT22;7779;49.596;11.070;2022-08-19T12:01:33;24.00;69.40
15359;DHT22;7779;49.596;11.070;2022-08-19T12:03:59;23.90;69.60
15359;DHT22;7779;49.596;11.070;2022-08-19T12:06:28;23.90;70.10
15359;DHT22;7779;49.596;11.070;2022-08-19T12:08:58;23.90;70.30
15359;DHT22;7779;49.596;11.070;2022-08-19T12:11:27;23.90;70.40
15359;DHT22;7779;49.596;11.070;2022-08-19T12:13:53;23.90;70.60
15359;DHT22;7779;49.596;11.070;2022-08-19T12:16:22;23.90;70.80
15359;DHT22;7779;49.596;11.070;2022-08-19T12:18:50;23.90;71.00
15359;DHT22;7779;49.596;11.070;2022-08-19T12:21:25;23.90;71.10
15359;DHT22;7779;49.596;11.070;2022-08-19T12:23:57;23.90;71.30
15359;DHT22;7779;49.596;11.070;2022-08-19T12:26:25;23.90;71.50
15359;DHT22;7779;49.596;11.070;2022-08-19T12:28:52;23.90;71.50
15359;DHT22;7779;49.596;11.070;2022-08-19T12:31:18;23.90;71.60
15359;DHT22;7779;49.596;11.070;2022-08-19T12:33:45;23.90;71.70
15359;DHT22;7779;49.596;11.070;2022-08-19T12:36:14;23.90;71.80
15359;DHT22;7779;49.596;11.070;2022-08-19T12:38:41;23.90;71.90
15359;DHT22;7779;49.596;11.070;2022-08-19T12:41:11;23.90;71.90
15359;DHT22;7779;49.596;11.070;2022-08-19T12:43:39;24.00;72.00
15359;DHT22;7779;49.596;11.070;2022-08-19T12:46:07;24.00;71.90
15359;DHT22;7779;49.596;11.070;2022-08-19T12:48:34;24.00;71.90
15359;DHT22;7779;49.596;11.070;2022-08-19T12:51:05;24.00;72.00
15359;DHT22;7779;49.596;11.070;2022-08-19T12:53:32;24.00;72.10
15359;DHT22;7779;49.596;11.070;2022-08-19T12:55:58;24.00;72.10
15359;DHT22;7779;49.596;11.070;2022-08-19T12:58:26;24.00;72.30
15359;DHT22;7779;49.596;11.070;2022-08-19T13:00:54;24.00;72.30
15359;DHT22;7779;49.596;11.070;2022-08-19T13:03:20;24.00;72.30
15359;DHT22;7779;49.596;11.070;2022-08-19T13:05:47;24.00;72.20
15359;DHT22;7779;49.596;11.070;2022-08-19T13:08:15;24.00;72.30
15359;DHT22;7779;49.596;11.070;2022-08-19T13:10:42;23.90;72.20
15359;DHT22;7779;49.596;11.070;2022-08-19T13:13:09;23.90;72.10
15359;DHT22;7779;49.596;11.070;2022-08-19T13:15:40;23.80;72.10
15359;DHT22;7779;49.596;11.070;2022-08-19T13:18:08;23.80;72.20
15359;DHT22;7779;49.596;11.070;2022-08-19T13:20:37;23.70;72.10
15359;DHT22;7779;49.596;11.070;2022-08-19T13:23:03;23.60;72.30
15359;DHT22;7779;49.596;11.070;2022-08-19T13:25:30;23.60;72.70
15359;DHT22;7779;49.596;11.070;2022-08-19T13:27:56;23.50;72.90
15359;DHT22;7779;49.596;11.070;2022-08-19T13:30:22;23.50;73.30
15359;DHT22;7779;49.596;11.070;2022-08-19T13:33:08;23.40;73.60
15359;DHT22;7779;49.596;11.070;2022-08-19T13:35:53;23.40;74.00
15359;DHT22;7779;49.596;11.070;2022-08-19T13:38:23;23.40;74.90
15359;DHT22;7779;49.596;11.070;2022-08-19T13:40:51;23.40;74.50
15359;DHT22;7779;49.596;11.070;2022-08-19T13:43:20;23.40;74.80
15359;DHT22;7779;49.596;11.070;2022-08-19T13:45:51;23.40;75.20
15359;DHT22;7779;49.596;11.070;2022-08-19T13:48:22;23.40;75.40
15359;DHT22;7779;49.596;11.070;2022-08-19T13:50:49;23.40;75.70
15359;DHT22;7779;49.596;11.070;2022-08-19T13:53:15;23.40;75.50
15359;DHT22;7779;49.596;11.070;2022-08-19T13:55:42;23.40;75.40
15359;DHT22;7779;49.596;11.070;2022-08-19T13:58:10;23.40;75.20
15359;DHT22;7779;49.596;11.070;2022-08-19T14:00:41;23.40;75.00
15359;DHT22;7779;49.596;11.070;2022-08-19T14:03:09;23.40;75.10
15359;DHT22;7779;49.596;11.070;2022-08-19T14:05:36;23.40;74.70
15359;DHT22;7779;49.596;11.070;2022-08-19T14:08:03;23.40;74.80
15359;DHT22;7779;49.596;11.070;2022-08-19T14:10:29;23.30;74.50
15359;DHT22;7779;49.596;11.070;2022-08-19T14:12:59;23.30;74.60
15359;DHT22;7779;49.596;11.070;2022-08-19T14:15:27;23.20;74.60
15359;DHT22;7779;49.596;11.070;2022-08-19T14:17:54;23.20;74.60
15359;DHT22;7779;49.596;11.070;2022-08-19T14:20:21;23.20;74.60
15359;DHT22;7779;49.596;11.070;2022-08-19T14:22:48;23.10;74.60
15359;DHT22;7779;49.596;11.070;2022-08-19T14:25:18;23.10;74.70
15359;DHT22;7779;49.596;11.070;2022-08-19T14:27:46;23.00;75.10
15359;DHT22;7779;49.596;11.070;2022-08-19T14:30:14;23.00;75.20
15359;DHT22;7779;49.596;11.070;2022-08-19T14:32:42;23.00;75.50
15359;DHT22;7779;49.596;11.070;2022-08-19T14:35:09;23.00;75.80
15359;DHT22;7779;49.596;11.070;2022-08-19T14:37:38;23.00;76.10
15359;DHT22;7779;49.596;11.070;2022-08-19T14:40:06;23.00;76.20
15359;DHT22;7779;49.596;11.070;2022-08-19T14:42:33;23.00;76.30
15359;DHT22;7779;49.596;11.070;2022-08-19T14:45:00;23.00;76.40
15359;DHT22;7779;49.596;11.070;2022-08-19T14:47:26;23.00;76.50
15359;DHT22;7779;49.596;11.070;2022-08-19T14:49:53;23.00;76.50
15359;DHT22;7779;49.596;11.070;2022-08-19T14:52:19;23.00;76.70
15359;DHT22;7779;49.596;11.070;2022-08-19T14:54:46;23.00;76.80
15359;DHT22;7779;49.596;11.070;2022-08-19T14:57:13;23.00;76.90
15359;DHT22;7779;49.596;11.070;2022-08-19T14:59:41;23.00;77.20
15359;DHT22;7779;49.596;11.070;2022-08-19T15:02:08;23.00;77.20
15359;DHT22;7779;49.596;11.070;2022-08-19T15:04:36;22.90;77.10
15359;DHT22;7779;49.596;11.070;2022-08-19T15:07:03;22.90;77.30
15359;DHT22;7779;49.596;11.070;2022-08-19T15:09:31;22.90;77.40
15359;DHT22;7779;49.596;11.070;2022-08-19T15:11:57;22.90;77.60
15359;DHT22;7779;49.596;11.070;2022-08-19T15:14:25;22.90;77.80
15359;DHT22;7779;49.596;11.070;2022-08-19T15:16:51;22.90;77.80
15359;DHT22;7779;49.596;11.070;2022-08-19T15:19:17;22.90;77.70
15359;DHT22;7779;49.596;11.070;2022-08-19T15:21:43;22.90;77.70
15359;DHT22;7779;49.596;11.070;2022-08-19T15:24:10;22.90;77.80
15359;DHT22;7779;49.596;11.070;2022-08-19T15:26:36;22.90;78.00
15359;DHT22;7779;49.596;11.070;2022-08-19T15:29:03;22.90;78.00
15359;DHT22;7779;49.596;11.070;2022-08-19T15:31:30;22.90;78.00
15359;DHT22;7779;49.596;11.070;2022-08-19T15:34:02;22.90;78.00
15359;DHT22;7779;49.596;11.070;2022-08-19T15:36:28;22.80;77.90
15359;DHT22;7779;49.596;11.070;2022-08-19T15:38:57;22.80;78.10
15359;DHT22;7779;49.596;11.070;2022-08-19T15:41:28;22.80;78.70
15359;DHT22;7779;49.596;11.070;2022-08-19T15:43:58;22.70;78.50
15359;DHT22;7779;49.596;11.070;2022-08-19T15:46:28;22.70;78.40
15359;DHT22;7779;49.596;11.070;2022-08-19T15:48:56;22.70;78.60
15359;DHT22;7779;49.596;11.070;2022-08-19T15:51:23;22.70;78.50
15359;DHT22;7779;49.596;11.070;2022-08-19T15:53:50;22.60;78.60
15359;DHT22;7779;49.596;11.070;2022-08-19T15:56:16;22.60;78.80
15359;DHT22;7779;49.596;11.070;2022-08-19T15:58:42;22.60;79.00
15359;DHT22;7779;49.596;11.070;2022-08-19T16:01:29;22.60;79.20